sensor_id;sensor_type;location;lat;lon;timestamp;pressure;altitude;pressure_sealevel;temperature;humidity
61105;BME280;46987;32.638;-115.438;2022-10-16T00:01:16;100869.94;;;18.17;66.95
61105;BME280;46987;32.638;-115.438;2022-10-16T00:03:44;100860.28;;;18.21;66.94
61105;BME280;46987;32.638;-115.438;2022-10-16T00:06:13;100833.09;;;18.10;67.01
61105;BME280;46987;32.638;-115.438;2022-10-16T00:08:41;100857.09;;;18.31;67.29
61105;BME280;46987;32.638;-115.438;2022-10-16T00:11:10;100861.84;;;18.36;67.96
61105;BME280;46987;32.638;-115.438;2022-10-16T00:13:41;100823.78;;;18.24;68.29
61105;BME280;46987;32.638;-115.438;2022-10-16T00:16:12;100851.59;;;18.38;68.50
61105;BME280;46987;32.638;-115.438;2022-10-16T00:18:40;100849.84;;;18.43;68.39
61105;BME280;46987;32.638;-115.438;2022-10-16T00:21:10;100840.53;;;18.39;69.01
61105;BME280;46987;32.638;-115.438;2022-10-16T00:23:39;100841.66;;;18.50;69.20
61105;BME280;46987;32.638;-115.438;2022-10-16T00:26:09;100846.69;;;18.46;69.53
61105;BME280;46987;32.638;-115.438;2022-10-16T00:28:36;100860.66;;;18.50;69.43
61105;BME280;46987;32.638;-115.438;2022-10-16T00:31:06;100865.00;;;18.51;69.93
61105;BME280;46987;32.638;-115.438;2022-10-16T00:33:35;100870.84;;;18.54;69.97
61105;BME280;46987;32.638;-115.438;2022-10-16T00:36:03;100859.44;;;18.46;69.77
61105;BME280;46987;32.638;-115.438;2022-10-16T00:38:31;100872.19;;;18.45;70.16
61105;BME280;46987;32.638;-115.438;2022-10-16T00:40:59;100868.50;;;18.40;69.97
61105;BME280;46987;32.638;-115.438;2022-10-16T00:43:35;100879.50;;;18.45;69.59
61105;BME280;46987;32.638;-115.438;2022-10-16T00:46:08;100873.22;;;18.44;69.18
61105;BME280;46987;32.638;-115.438;2022-10-16T00:48:37;100883.03;;;18.45;68.50
61105;BME280;46987;32.638;-115.438;2022-10-16T00:51:06;100890.06;;;18.35;67.53
61105;BME280;46987;32.638;-115.438;2022-10-16T00:53:35;100899.47;;;18.32;66.84
61105;BME280;46987;32.638;-115.438;2022-10-16T00:56:02;100903.22;;;18.31;66.26
61105;BME280;46987;32.638;-115.438;2022-10-16T00:58:30;100909.69;;;18.30;66.07
61105;BME280;46987;32.638;-115.438;2022-10-16T01:00:57;100923.94;;;18.25;66.22
61105;BME280;46987;32.638;-115.438;2022-10-16T01:03:28;100927.53;;;18.19;66.77
61105;BME280;46987;32.638;-115.438;2022-10-16T01:06:13;100913.78;;;18.14;66.39
61105;BME280;46987;32.638;-115.438;2022-10-16T01:08:52;100931.84;;;18.02;66.86
61105;BME280;46987;32.638;-115.438;2022-10-16T01:11:25;100931.94;;;17.89;67.39
61105;BME280;46987;32.638;-115.438;2022-10-16T01:13:55;100939.84;;;17.90;67.22
61105;BME280;46987;32.638;-115.438;2022-10-16T01:16:30;100945.03;;;17.92;67.35
61105;BME280;46987;32.638;-115.438;2022-10-16T01:19:08;100948.44;;;17.87;67.53
61105;BME280;46987;32.638;-115.438;2022-10-16T01:21:39;100951.34;;;17.86;67.57
61105;BME280;46987;32.638;-115.438;2022-10-16T01:24:14;100942.69;;;17.71;67.76
61105;BME280;46987;32.638;-115.438;2022-10-16T01:27:13;100952.63;;;17.83;67.83
61105;BME280;46987;32.638;-115.438;2022-10-16T01:29:49;100966.22;;;17.77;68.19
61105;BME280;46987;32.638;-115.438;2022-10-16T01:32:26;100964.38;;;17.71;68.19
61105;BME280;46987;32.638;-115.438;2022-10-16T01:34:59;100964.66;;;17.63;68.32
61105;BME280;46987;32.638;-115.438;2022-10-16T01:37:33;100967.81;;;17.60;68.68
61105;BME280;46987;32.638;-115.438;2022-10-16T01:40:06;100969.03;;;17.64;68.62
61105;BME280;46987;32.638;-115.438;2022-10-16T01:42:40;100970.91;;;17.63;68.52
61105;BME280;46987;32.638;-115.438;2022-10-16T01:45:10;100959.00;;;17.64;68.88
61105;BME280;46987;32.638;-115.438;2022-10-16T01:47:41;100967.81;;;17.60;68.64
61105;BME280;46987;32.638;-115.438;2022-10-16T01:50:09;100957.81;;;17.54;68.56
61105;BME280;46987;32.638;-115.438;2022-10-16T01:52:39;100953.88;;;17.49;68.53
61105;BME280;46987;32.638;-115.438;2022-10-16T01:55:09;100942.06;;;17.37;68.55
61105;BME280;46987;32.638;-115.438;2022-10-16T01:57:45;100941.81;;;17.39;68.21
61105;BME280;46987;32.638;-115.438;2022-10-16T02:00:14;100938.06;;;17.40;68.20
61105;BME280;46987;32.638;-115.438;2022-10-16T02:02:46;100937.00;;;17.41;68.34
61105;BME280;46987;32.638;-115.438;2022-10-16T02:05:18;100936.59;;;17.44;68.29
61105;BME280;46987;32.638;-115.438;2022-10-16T02:07:48;100941.16;;;17.50;68.38
61105;BME280;46987;32.638;-115.438;2022-10-16T02:10:16;100940.53;;;17.48;68.21
61105;BME280;46987;32.638;-115.438;2022-10-16T02:12:48;100931.81;;;17.39;68.14
61105;BME280;46987;32.638;-115.438;2022-10-16T02:15:17;100945.31;;;17.46;68.01
61105;BME280;46987;32.638;-115.438;2022-10-16T02:17:44;100944.47;;;17.45;67.54
61105;BME280;46987;32.638;-115.438;2022-10-16T02:20:11;100914.00;;;17.19;67.50
61105;BME280;46987;32.638;-115.438;2022-10-16T02:22:42;100952.66;;;17.39;66.93
61105;BME280;46987;32.638;-115.438;2022-10-16T02:25:13;100953.47;;;17.39;67.09
61105;BME280;46987;32.638;-115.438;2022-10-16T02:27:49;100946.03;;;17.28;66.41
61105;BME280;46987;32.638;-115.438;2022-10-16T02:30:21;100967.25;;;17.38;66.50
61105;BME280;46987;32.638;-115.438;2022-10-16T02:32:53;100957.47;;;17.30;66.23
61105;BME280;46987;32.638;-115.438;2022-10-16T02:35:22;100966.84;;;17.34;66.23
61105;BME280;46987;32.638;-115.438;2022-10-16T02:37:54;100965.81;;;17.35;66.08
61105;BME280;46987;32.638;-115.438;2022-10-16T02:40:24;100974.56;;;17.37;65.76
61105;BME280;46987;32.638;-115.438;2022-10-16T02:42:57;100962.31;;;17.28;65.76
61105;BME280;46987;32.638;-115.438;2022-10-16T02:45:24;100972.69;;;17.31;65.73
61105;BME280;46987;32.638;-115.438;2022-10-16T02:47:52;100992.91;;;17.35;65.75
61105;BME280;46987;32.638;-115.438;2022-10-16T02:50:19;101000.59;;;17.38;65.54
61105;BME280;46987;32.638;-115.438;2022-10-16T02:52:46;100998.75;;;17.32;65.69
61105;BME280;46987;32.638;-115.438;2022-10-16T02:55:13;101014.75;;;17.40;65.53
61105;BME280;46987;32.638;-115.438;2022-10-16T02:57:41;101024.75;;;17.46;65.95
61105;BME280;46987;32.638;-115.438;2022-10-16T03:00:13;101031.66;;;17.49;66.10
61105;BME280;46987;32.638;-115.438;2022-10-16T03:02:41;101032.03;;;17.46;65.89
61105;BME280;46987;32.638;-115.438;2022-10-16T03:05:09;101033.53;;;17.48;66.47
61105;BME280;46987;32.638;-115.438;2022-10-16T03:07:37;101024.56;;;17.41;66.46
61105;BME280;46987;32.638;-115.438;2022-10-16T03:10:05;101030.59;;;17.43;67.08
61105;BME280;46987;32.638;-115.438;2022-10-16T03:12:33;101045.41;;;17.47;66.86
61105;BME280;46987;32.638;-115.438;2022-10-16T03:15:03;101055.59;;;17.45;67.29
61105;BME280;46987;32.638;-115.438;2022-10-16T03:17:33;101056.88;;;17.43;67.15
61105;BME280;46987;32.638;-115.438;2022-10-16T03:20:00;101057.50;;;17.45;67.38
61105;BME280;46987;32.638;-115.438;2022-10-16T03:22:28;101058.56;;;17.37;67.03
61105;BME280;46987;32.638;-115.438;2022-10-16T03:24:55;101068.94;;;17.40;67.62
61105;BME280;46987;32.638;-115.438;2022-10-16T03:27:22;101066.69;;;17.37;67.57
61105;BME280;46987;32.638;-115.438;2022-10-16T03:29:50;101066.06;;;17.35;67.48
61105;BME280;46987;32.638;-115.438;2022-10-16T03:32:20;101065.84;;;17.30;67.24
61105;BME280;46987;32.638;-115.438;2022-10-16T03:34:49;101066.09;;;17.22;67.46
61105;BME280;46987;32.638;-115.438;2022-10-16T03:37:17;101067.34;;;17.20;67.22
61105;BME280;46987;32.638;-115.438;2022-10-16T03:39:44;101084.25;;;17.22;68.06
61105;BME280;46987;32.638;-115.438;2022-10-16T03:42:11;101074.00;;;17.17;67.87
61105;BME280;46987;32.638;-115.438;2022-10-16T03:44:39;101079.22;;;17.19;68.14
61105;BME280;46987;32.638;-115.438;2022-10-16T03:47:06;101078.19;;;17.20;68.58
61105;BME280;46987;32.638;-115.438;2022-10-16T03:49:33;101081.94;;;17.19;68.70
61105;BME280;46987;32.638;-115.438;2022-10-16T03:52:02;101064.69;;;17.06;68.62
61105;BME280;46987;32.638;-115.438;2022-10-16T03:54:29;101083.63;;;17.13;68.97
61105;BME280;46987;32.638;-115.438;2022-10-16T03:56:56;101070.69;;;17.08;68.89
61105;BME280;46987;32.638;-115.438;2022-10-16T03:59:23;101067.59;;;17.05;69.13
61105;BME280;46987;32.638;-115.438;2022-10-16T04:01:51;101065.75;;;16.99;69.22
61105;BME280;46987;32.638;-115.438;2022-10-16T04:04:18;101069.88;;;17.01;69.88
61105;BME280;46987;32.638;-115.438;2022-10-16T04:06:45;101081.53;;;17.02;70.12
61105;BME280;46987;32.638;-115.438;2022-10-16T04:09:14;101083.88;;;16.98;70.32
61105;BME280;46987;32.638;-115.438;2022-10-16T04:11:41;101082.00;;;16.92;70.00
61105;BME280;46987;32.638;-115.438;2022-10-16T04:14:14;101090.53;;;16.89;69.87
61105;BME280;46987;32.638;-115.438;2022-10-16T04:16:42;101084.69;;;16.86;69.57
61105;BME280;46987;32.638;-115.438;2022-10-16T04:19:10;101077.41;;;16.80;69.44
61105;BME280;46987;32.638;-115.438;2022-10-16T04:21:37;101064.53;;;16.68;69.37
61105;BME280;46987;32.638;-115.438;2022-10-16T04:24:04;101095.13;;;16.82;69.65
61105;BME280;46987;32.638;-115.438;2022-10-16T04:26:33;101093.25;;;16.83;69.24
61105;BME280;46987;32.638;-115.438;2022-10-16T04:29:00;101090.09;;;16.79;69.65
61105;BME280;46987;32.638;-115.438;2022-10-16T04:31:29;101087.84;;;16.76;69.71
61105;BME280;46987;32.638;-115.438;2022-10-16T04:33:56;101093.66;;;16.80;69.40
61105;BME280;46987;32.638;-115.438;2022-10-16T04:36:23;101098.22;;;16.79;68.97
61105;BME280;46987;32.638;-115.438;2022-10-16T04:38:51;101098.88;;;16.81;69.47
61105;BME280;46987;32.638;-115.438;2022-10-16T04:41:18;101075.16;;;16.70;69.27
61105;BME280;46987;32.638;-115.438;2022-10-16T04:43:47;101089.28;;;16.79;68.85
61105;BME280;46987;32.638;-115.438;2022-10-16T04:46:14;101083.66;;;16.73;68.41
61105;BME280;46987;32.638;-115.438;2022-10-16T04:48:41;101097.63;;;16.84;68.95
61105;BME280;46987;32.638;-115.438;2022-10-16T04:51:08;101078.44;;;16.65;68.54
61105;BME280;46987;32.638;-115.438;2022-10-16T04:53:35;101100.53;;;16.82;68.37
61105;BME280;46987;32.638;-115.438;2022-10-16T04:56:03;101100.72;;;16.81;68.42
61105;BME280;46987;32.638;-115.438;2022-10-16T04:58:31;101095.72;;;16.78;68.16
61105;BME280;46987;32.638;-115.438;2022-10-16T05:01:00;101103.84;;;16.78;68.51
61105;BME280;46987;32.638;-115.438;2022-10-16T05:03:27;101112.59;;;16.80;68.23
61105;BME280;46987;32.638;-115.438;2022-10-16T05:05:55;101109.06;;;16.79;67.84
61105;BME280;46987;32.638;-115.438;2022-10-16T05:08:23;101109.06;;;16.79;67.46
61105;BME280;46987;32.638;-115.438;2022-10-16T05:10:50;101101.56;;;16.74;67.57
61105;BME280;46987;32.638;-115.438;2022-10-16T05:13:18;101100.34;;;16.77;67.33
61105;BME280;46987;32.638;-115.438;2022-10-16T05:15:47;101093.25;;;16.76;66.76
61105;BME280;46987;32.638;-115.438;2022-10-16T05:18:17;101100.34;;;16.77;66.75
61105;BME280;46987;32.638;-115.438;2022-10-16T05:20:44;101070.50;;;16.57;66.43
61105;BME280;46987;32.638;-115.438;2022-10-16T05:23:11;101097.63;;;16.77;66.30
61105;BME280;46987;32.638;-115.438;2022-10-16T05:25:38;101071.53;;;16.63;65.96
61105;BME280;46987;32.638;-115.438;2022-10-16T05:28:05;101089.91;;;16.74;65.99
61105;BME280;46987;32.638;-115.438;2022-10-16T05:30:32;101102.22;;;16.77;65.98
61105;BME280;46987;32.638;-115.438;2022-10-16T05:33:00;101093.84;;;16.78;65.80
61105;BME280;46987;32.638;-115.438;2022-10-16T05:35:28;101095.53;;;16.79;65.79
61105;BME280;46987;32.638;-115.438;2022-10-16T05:37:56;101083.88;;;16.72;65.40
61105;BME280;46987;32.638;-115.438;2022-10-16T05:40:23;101097.00;;;16.82;65.04
61105;BME280;46987;32.638;-115.438;2022-10-16T05:42:54;101103.03;;;16.84;64.60
61105;BME280;46987;32.638;-115.438;2022-10-16T05:45:21;101103.88;;;16.84;64.36
61105;BME280;46987;32.638;-115.438;2022-10-16T05:47:48;101113.88;;;16.84;64.22
61105;BME280;46987;32.638;-115.438;2022-10-16T05:50:18;101107.81;;;16.82;64.62
61105;BME280;46987;32.638;-115.438;2022-10-16T05:52:47;101115.09;;;16.88;64.31
61105;BME280;46987;32.638;-115.438;2022-10-16T05:55:14;101122.19;;;16.89;64.23
61105;BME280;46987;32.638;-115.438;2022-10-16T05:57:42;101099.28;;;16.78;64.20
61105;BME280;46987;32.638;-115.438;2022-10-16T06:00:10;101123.84;;;16.90;63.63
61105;BME280;46987;32.638;-115.438;2022-10-16T06:02:41;101120.50;;;16.94;63.91
61105;BME280;46987;32.638;-115.438;2022-10-16T06:05:08;101122.19;;;16.89;63.53
61105;BME280;46987;32.638;-115.438;2022-10-16T06:07:36;101119.25;;;16.97;63.41
61105;BME280;46987;32.638;-115.438;2022-10-16T06:10:06;101112.81;;;16.91;63.55
61105;BME280;46987;32.638;-115.438;2022-10-16T06:12:33;101113.03;;;16.90;63.20
61105;BME280;46987;32.638;-115.438;2022-10-16T06:15:01;101123.00;;;16.96;62.78
61105;BME280;46987;32.638;-115.438;2022-10-16T06:17:28;101126.56;;;16.96;63.10
61105;BME280;46987;32.638;-115.438;2022-10-16T06:19:56;101133.44;;;16.99;63.12
61105;BME280;46987;32.638;-115.438;2022-10-16T06:22:23;101126.56;;;16.96;62.38
61105;BME280;46987;32.638;-115.438;2022-10-16T06:24:52;101125.91;;;17.01;62.05
61105;BME280;46987;32.638;-115.438;2022-10-16T06:29:47;101105.72;;;16.97;62.04
61105;BME280;46987;32.638;-115.438;2022-10-16T06:32:14;101111.56;;;17.07;62.03
61105;BME280;46987;32.638;-115.438;2022-10-16T06:34:42;101115.31;;;17.06;61.23
61105;BME280;46987;32.638;-115.438;2022-10-16T06:37:09;101115.31;;;17.06;61.73
61105;BME280;46987;32.638;-115.438;2022-10-16T06:39:36;101099.69;;;16.95;61.81
61105;BME280;46987;32.638;-115.438;2022-10-16T06:42:04;101114.03;;;17.02;61.56
61105;BME280;46987;32.638;-115.438;2022-10-16T06:44:37;101111.53;;;17.00;61.21
61105;BME280;46987;32.638;-115.438;2022-10-16T06:47:04;101123.44;;;17.06;61.43
61105;BME280;46987;32.638;-115.438;2022-10-16T06:49:31;101119.47;;;17.02;60.88
61105;BME280;46987;32.638;-115.438;2022-10-16T06:51:59;101123.22;;;17.01;60.47
61105;BME280;46987;32.638;-115.438;2022-10-16T06:54:26;101127.59;;;17.02;60.04
61105;BME280;46987;32.638;-115.438;2022-10-16T06:56:53;101110.53;;;16.88;59.84
61105;BME280;46987;32.638;-115.438;2022-10-16T06:59:21;101117.19;;;16.92;60.01
61105;BME280;46987;32.638;-115.438;2022-10-16T07:01:50;101107.63;;;16.90;60.51
61105;BME280;46987;32.638;-115.438;2022-10-16T07:04:17;101116.97;;;16.94;60.59
61105;BME280;46987;32.638;-115.438;2022-10-16T07:06:44;101111.56;;;16.94;60.43
61105;BME280;46987;32.638;-115.438;2022-10-16T07:09:12;101098.47;;;16.84;60.71
61105;BME280;46987;32.638;-115.438;2022-10-16T07:11:41;101107.63;;;16.90;60.97
61105;BME280;46987;32.638;-115.438;2022-10-16T07:14:14;101104.06;;;16.89;60.65
61105;BME280;46987;32.638;-115.438;2022-10-16T07:16:42;101106.78;;;16.89;60.85
61105;BME280;46987;32.638;-115.438;2022-10-16T07:19:11;101094.47;;;16.80;61.03
61105;BME280;46987;32.638;-115.438;2022-10-16T07:21:41;101109.06;;;16.86;60.98
61105;BME280;46987;32.638;-115.438;2022-10-16T07:24:12;101096.78;;;16.77;61.03
61105;BME280;46987;32.638;-115.438;2022-10-16T07:26:41;101107.00;;;16.81;60.71
61105;BME280;46987;32.638;-115.438;2022-10-16T07:29:13;101105.31;;;16.80;61.09
61105;BME280;46987;32.638;-115.438;2022-10-16T07:31:41;101105.75;;;16.77;61.18
61105;BME280;46987;32.638;-115.438;2022-10-16T07:34:10;101112.81;;;16.78;60.67
61105;BME280;46987;32.638;-115.438;2022-10-16T07:36:37;101105.94;;;16.76;60.70
61105;BME280;46987;32.638;-115.438;2022-10-16T07:39:04;101084.28;;;16.62;60.54
61105;BME280;46987;32.638;-115.438;2022-10-16T07:41:32;101100.94;;;16.72;60.83
61105;BME280;46987;32.638;-115.438;2022-10-16T07:44:03;101097.59;;;16.70;60.72
61105;BME280;46987;32.638;-115.438;2022-10-16T07:46:30;101100.31;;;16.70;60.34
61105;BME280;46987;32.638;-115.438;2022-10-16T07:48:59;101096.53;;;16.65;60.74
61105;BME280;46987;32.638;-115.438;2022-10-16T07:51:28;101104.50;;;16.66;60.09
61105;BME280;46987;32.638;-115.438;2022-10-16T07:53:56;101088.81;;;16.55;60.14
61105;BME280;46987;32.638;-115.438;2022-10-16T07:56:23;101101.56;;;16.61;60.18
61105;BME280;46987;32.638;-115.438;2022-10-16T07:58:51;101102.59;;;16.60;60.27
61105;BME280;46987;32.638;-115.438;2022-10-16T08:01:18;101099.44;;;16.57;60.81
61105;BME280;46987;32.638;-115.438;2022-10-16T08:03:46;101106.97;;;16.61;60.29
61105;BME280;46987;32.638;-115.438;2022-10-16T08:06:15;101112.16;;;16.56;60.42
61105;BME280;46987;32.638;-115.438;2022-10-16T08:08:44;101104.84;;;16.50;61.30
61105;BME280;46987;32.638;-115.438;2022-10-16T08:11:11;101106.53;;;16.51;60.94
61105;BME280;46987;32.638;-115.438;2022-10-16T08:13:38;101093.19;;;16.43;60.58
61105;BME280;46987;32.638;-115.438;2022-10-16T08:16:06;101107.56;;;16.50;60.98
61105;BME280;46987;32.638;-115.438;2022-10-16T08:18:35;101104.84;;;16.44;61.20
61105;BME280;46987;32.638;-115.438;2022-10-16T08:21:03;101110.91;;;16.46;60.94
61105;BME280;46987;32.638;-115.438;2022-10-16T08:23:31;101109.22;;;16.45;60.76
61105;BME280;46987;32.638;-115.438;2022-10-16T08:26:05;101108.41;;;16.44;60.94
61105;BME280;46987;32.638;-115.438;2022-10-16T08:28:32;101090.88;;;16.33;60.15
61105;BME280;46987;32.638;-115.438;2022-10-16T08:31:09;101091.13;;;16.32;60.56
61105;BME280;46987;32.638;-115.438;2022-10-16T08:33:37;101112.34;;;16.42;60.15
61105;BME280;46987;32.638;-115.438;2022-10-16T08:36:05;101112.34;;;16.42;60.51
61105;BME280;46987;32.638;-115.438;2022-10-16T08:38:33;101113.38;;;16.41;60.22
61105;BME280;46987;32.638;-115.438;2022-10-16T08:41:38;101125.25;;;16.46;60.31
61105;BME280;46987;32.638;-115.438;2022-10-16T08:44:30;101117.53;;;16.36;59.74
61105;BME280;46987;32.638;-115.438;2022-10-16T08:47:12;101124.63;;;16.44;59.43
61105;BME280;46987;32.638;-115.438;2022-10-16T08:50:08;101112.56;;;16.47;59.30
61105;BME280;46987;32.638;-115.438;2022-10-16T08:52:48;101123.59;;;16.45;59.60
61105;BME280;46987;32.638;-115.438;2022-10-16T08:55:49;101116.31;;;16.46;59.44
61105;BME280;46987;32.638;-115.438;2022-10-16T08:59:02;101113.59;;;16.46;59.41
61105;BME280;46987;32.638;-115.438;2022-10-16T09:02:30;101110.91;;;16.46;59.28
61105;BME280;46987;32.638;-115.438;2022-10-16T09:05:33;101110.25;;;16.44;59.36
61105;BME280;46987;32.638;-115.438;2022-10-16T09:08:11;101110.47;;;16.42;59.29
61105;BME280;46987;32.638;-115.438;2022-10-16T09:10:49;101089.44;;;16.24;58.90
61105;BME280;46987;32.638;-115.438;2022-10-16T09:13:26;101109.03;;;16.40;58.84
61105;BME280;46987;32.638;-115.438;2022-10-16T09:16:03;101114.44;;;16.40;58.96
61105;BME280;46987;32.638;-115.438;2022-10-16T09:18:48;101045.28;;;15.97;58.70
61105;BME280;46987;32.638;-115.438;2022-10-16T09:21:23;101123.16;;;16.42;58.81
61105;BME280;46987;32.638;-115.438;2022-10-16T09:23:51;101125.47;;;16.45;59.12
61105;BME280;46987;32.638;-115.438;2022-10-16T09:26:19;101125.03;;;16.41;59.19
61105;BME280;46987;32.638;-115.438;2022-10-16T09:28:48;101110.44;;;16.29;59.10
61105;BME280;46987;32.638;-115.438;2022-10-16T09:31:21;101117.09;;;16.33;59.43
61105;BME280;46987;32.638;-115.438;2022-10-16T09:33:53;101119.41;;;16.29;59.29
61105;BME280;46987;32.638;-115.438;2022-10-16T09:36:23;101115.22;;;16.27;60.02
61105;BME280;46987;32.638;-115.438;2022-10-16T09:39:02;101079.59;;;16.04;59.51
61105;BME280;46987;32.638;-115.438;2022-10-16T09:41:33;101108.31;;;16.11;59.80
61105;BME280;46987;32.638;-115.438;2022-10-16T09:44:02;101128.31;;;16.17;59.98
61105;BME280;46987;32.638;-115.438;2022-10-16T09:46:33;101122.09;;;16.16;60.47
61105;BME280;46987;32.638;-115.438;2022-10-16T09:49:02;101121.66;;;16.13;60.04
61105;BME280;46987;32.638;-115.438;2022-10-16T09:51:31;101126.22;;;16.12;60.13
61105;BME280;46987;32.638;-115.438;2022-10-16T09:54:01;101093.72;;;15.86;60.05
61105;BME280;46987;32.638;-115.438;2022-10-16T09:56:30;101121.81;;;16.05;60.41
61105;BME280;46987;32.638;-115.438;2022-10-16T09:59:00;101132.88;;;16.10;60.44
61105;BME280;46987;32.638;-115.438;2022-10-16T10:01:36;101127.88;;;16.07;59.91
61105;BME280;46987;32.638;-115.438;2022-10-16T10:04:05;101112.03;;;15.97;59.66
61105;BME280;46987;32.638;-115.438;2022-10-16T10:06:35;101132.25;;;16.08;59.57
61105;BME280;46987;32.638;-115.438;2022-10-16T10:09:06;101145.56;;;16.09;58.98
61105;BME280;46987;32.638;-115.438;2022-10-16T10:11:50;101143.28;;;16.13;58.79
61105;BME280;46987;32.638;-115.438;2022-10-16T10:14:30;101120.78;;;15.99;58.29
61105;BME280;46987;32.638;-115.438;2022-10-16T10:17:11;101147.03;;;16.18;58.52
61105;BME280;46987;32.638;-115.438;2022-10-16T10:19:41;101138.91;;;16.12;58.25
61105;BME280;46987;32.638;-115.438;2022-10-16T10:22:21;101147.69;;;16.27;57.50
61105;BME280;46987;32.638;-115.438;2022-10-16T10:28:29;101162.31;;;16.39;57.74
61105;BME280;46987;32.638;-115.438;2022-10-16T10:31:05;101137.50;;;16.29;57.31
61105;BME280;46987;32.638;-115.438;2022-10-16T10:33:43;101148.13;;;16.37;57.35
61105;BME280;46987;32.638;-115.438;2022-10-16T10:36:28;101157.94;;;16.51;57.59
61105;BME280;46987;32.638;-115.438;2022-10-16T10:38:59;101151.69;;;16.44;57.34
61105;BME280;46987;32.638;-115.438;2022-10-16T10:44:34;101160.66;;;16.58;56.63
61105;BME280;46987;32.638;-115.438;2022-10-16T10:47:12;101144.63;;;16.50;56.78
61105;BME280;46987;32.638;-115.438;2022-10-16T10:49:54;101139.44;;;16.55;56.54
61105;BME280;46987;32.638;-115.438;2022-10-16T10:52:38;101158.78;;;16.65;56.37
61105;BME280;46987;32.638;-115.438;2022-10-16T10:55:18;101154.22;;;16.65;56.29
61105;BME280;46987;32.638;-115.438;2022-10-16T10:57:57;101151.50;;;16.59;56.09
61105;BME280;46987;32.638;-115.438;2022-10-16T11:00:33;101160.66;;;16.64;56.24
61105;BME280;46987;32.638;-115.438;2022-10-16T11:03:17;101131.72;;;16.45;56.62
61105;BME280;46987;32.638;-115.438;2022-10-16T11:05:54;101154.00;;;16.60;56.65
61105;BME280;46987;32.638;-115.438;2022-10-16T11:08:27;101157.31;;;16.56;56.20
61105;BME280;46987;32.638;-115.438;2022-10-16T11:10:59;101137.72;;;16.41;56.41
61105;BME280;46987;32.638;-115.438;2022-10-16T11:13:32;101148.59;;;16.47;56.56
61105;BME280;46987;32.638;-115.438;2022-10-16T11:16:03;101157.72;;;16.46;56.97
61105;BME280;46987;32.638;-115.438;2022-10-16T11:18:46;101159.16;;;16.42;56.64
61105;BME280;46987;32.638;-115.438;2022-10-16T11:21:19;101161.03;;;16.35;56.89
61105;BME280;46987;32.638;-115.438;2022-10-16T11:23:53;101159.34;;;16.34;56.90
61105;BME280;46987;32.638;-115.438;2022-10-16T11:26:24;101155.41;;;16.30;56.57
61105;BME280;46987;32.638;-115.438;2022-10-16T11:28:54;101160.38;;;16.26;56.90
61105;BME280;46987;32.638;-115.438;2022-10-16T11:31:27;101157.91;;;16.25;56.96
61105;BME280;46987;32.638;-115.438;2022-10-16T11:34:09;101154.13;;;16.26;56.99
61105;BME280;46987;32.638;-115.438;2022-10-16T11:36:47;101153.72;;;16.22;57.34
61105;BME280;46987;32.638;-115.438;2022-10-16T11:39:21;101146.00;;;16.19;57.59
61105;BME280;46987;32.638;-115.438;2022-10-16T11:41:51;101152.44;;;16.18;57.11
61105;BME280;46987;32.638;-115.438;2022-10-16T11:44:42;101162.03;;;16.21;57.43
61105;BME280;46987;32.638;-115.438;2022-10-16T11:47:23;101166.19;;;16.17;57.42
61105;BME280;46987;32.638;-115.438;2022-10-16T11:49:57;101162.66;;;16.16;57.67
61105;BME280;46987;32.638;-115.438;2022-10-16T11:52:33;101166.19;;;16.17;57.00
61105;BME280;46987;32.638;-115.438;2022-10-16T11:55:09;101172.19;;;16.12;57.28
61105;BME280;46987;32.638;-115.438;2022-10-16T11:57:42;101170.94;;;16.08;57.69
61105;BME280;46987;32.638;-115.438;2022-10-16T12:00:20;101180.50;;;16.11;57.14
61105;BME280;46987;32.638;-115.438;2022-10-16T12:02:58;101188.41;;;16.12;57.82
61105;BME280;46987;32.638;-115.438;2022-10-16T12:05:35;101189.69;;;16.10;57.93
61105;BME280;46987;32.638;-115.438;2022-10-16T12:08:14;101193.41;;;16.09;57.25
61105;BME280;46987;32.638;-115.438;2022-10-16T12:10:43;101193.59;;;16.07;57.06
61105;BME280;46987;32.638;-115.438;2022-10-16T12:13:31;101201.72;;;16.07;57.08
61105;BME280;46987;32.638;-115.438;2022-10-16T12:16:21;101203.97;;;16.04;57.91
61105;BME280;46987;32.638;-115.438;2022-10-16T12:18:49;101203.94;;;15.97;57.38
61105;BME280;46987;32.638;-115.438;2022-10-16T12:21:17;101203.53;;;15.93;57.71
61105;BME280;46987;32.638;-115.438;2022-10-16T12:23:52;101210.00;;;15.99;58.00
61105;BME280;46987;32.638;-115.438;2022-10-16T12:26:31;101215.22;;;16.01;57.95
61105;BME280;46987;32.638;-115.438;2022-10-16T12:29:17;101211.88;;;15.98;57.43
61105;BME280;46987;32.638;-115.438;2022-10-16T12:31:48;101221.84;;;15.98;57.91
61105;BME280;46987;32.638;-115.438;2022-10-16T12:34:22;101224.75;;;15.96;57.48
61105;BME280;46987;32.638;-115.438;2022-10-16T12:36:50;101221.59;;;15.86;57.58
61105;BME280;46987;32.638;-115.438;2022-10-16T12:39:23;101227.63;;;15.95;57.51
61105;BME280;46987;32.638;-115.438;2022-10-16T12:42:02;101223.50;;;15.92;57.45
61105;BME280;46987;32.638;-115.438;2022-10-16T12:44:34;101238.91;;;15.98;57.69
61105;BME280;46987;32.638;-115.438;2022-10-16T12:47:01;101237.69;;;16.01;57.69
61105;BME280;46987;32.638;-115.438;2022-10-16T12:49:36;101239.97;;;16.04;57.67
61105;BME280;46987;32.638;-115.438;2022-10-16T12:54:51;101250.41;;;16.07;56.91